This is the latest recevied weather packets stored in our database for station/object KI7JYE. If no packets are shown the sender has not sent any weather packets the latest 10 day(s).
| Time | Temp. | Humidity | Pressure | Rain* | Wind** | Luminosity | Snow |
|---|---|---|---|---|---|---|---|
| 1777536882 | 11.67° C | 77% | 1018 hPa | 0 mm | - | 0 W/m² | - |
| 1777536581 | 12.22° C | 76% | 1018.3 hPa | 0 mm | - | 0 W/m² | - |
| 1777536277 | 12.78° C | 75% | 1018.2 hPa | 0 mm | - | 0 W/m² | - |
| 1777535973 | 13.33° C | 72% | 1018.3 hPa | 0 mm | - | 0 W/m² | - |
| 1777535669 | 13.33° C | 71% | 1018.2 hPa | 0 mm | - | 0 W/m² | - |
| 1777534761 | 13.89° C | 69% | 1017.9 hPa | 0 mm | - | 0 W/m² | - |
| 1777534457 | 13.33° C | 71% | 1018.2 hPa | 0 mm | - | 0 W/m² | - |
| 1777534154 | 12.78° C | 73% | 1018 hPa | 0 mm | - | 0 W/m² | - |
| 1777533852 | 12.78° C | 74% | 1018.3 hPa | 0 mm | - | 0 W/m² | - |
| 1777533548 | 12.78° C | 74% | 1018.1 hPa | 0 mm | - | 0 W/m² | - |
| 1777533244 | 12.78° C | 74% | 1018.4 hPa | 0 mm | - | 0 W/m² | - |
| 1777532941 | 12.78° C | 73% | 1018.4 hPa | 0 mm | - | 0 W/m² | - |
| 1777532638 | 12.78° C | 72% | 1018.2 hPa | 0 mm | - | 0 W/m² | - |
| 1777532335 | 13.33° C | 71% | 1018.2 hPa | 0 mm | - | 0 W/m² | - |
| 1777532030 | 13.89° C | 70% | 1018.2 hPa | 0 mm | - | 0 W/m² | - |
| 1777531727 | 13.89° C | 69% | 1018.1 hPa | 0 mm | - | 0 W/m² | - |
| 1777531424 | 14.44° C | 67% | 1018.3 hPa | 0 mm | - | 0 W/m² | - |
| 1777531122 | 14.44° C | 65% | 1018.3 hPa | 0 mm | - | 0 W/m² | - |
| 1777530819 | 14.44° C | 64% | 1018.1 hPa | 0 mm | - | 0 W/m² | - |
| 1777530517 | 15° C | 65% | 1018.3 hPa | 0 mm | - | 0 W/m² | - |
| 1777530212 | 15° C | 65% | 1018.1 hPa | 0 mm | - | 0 W/m² | - |
| 1777529910 | 15° C | 64% | 1018 hPa | 0 mm | - | 0 W/m² | - |
| 1777529606 | 15° C | 64% | 1018.1 hPa | 0 mm | - | 0 W/m² | - |
| 1777529304 | 15° C | 65% | 1018.3 hPa | 0 mm | - | 0 W/m² | - |
| 1777529000 | 14.44° C | 67% | 1018.3 hPa | 0 mm | - | 0 W/m² | - |
* Rain latest hour (hover to see other rain measurements)
** Current wind speed in m/s (hover to see current wind gust speed)